Time;durP1;ratioP1;P1;durP2;ratioP2;P2;SDS_P1;SDS_P2;PMS_P1;PMS_P2;Temp;Humidity;BMP_temperature;BMP_pressure;BME280_temperature;BME280_humidity;BME280_pressure;Samples;Min_cycle;Max_cycle;Signal;HPM_P1;HPM_P2
2023/07/24 00:00:19;;;;;;;5.97;3.50;;;;;;;22.64;63.85;100492.75;5009450;28;20113;-45
2023/07/24 00:02:44;;;;;;;5.00;3.40;;;;;;;22.39;65.04;100484.94;5010628;28;20044;-43
2023/07/24 00:05:10;;;;;;;5.10;3.35;;;;;;;22.48;64.74;100486.34;5010998;28;20053;-43
2023/07/24 00:07:35;;;;;;;5.07;3.28;;;;;;;22.49;64.52;100488.09;5010538;28;20458;-46
2023/07/24 00:10:01;;;;;;;4.35;3.20;;;;;;;22.39;65.61;100479.63;5010324;28;20030;-44
2023/07/24 00:12:26;;;;;;;5.95;3.10;;;;;;;22.34;65.58;100472.78;5009944;28;20030;-44
2023/07/24 00:14:52;;;;;;;5.15;3.10;;;;;;;22.41;65.55;100474.25;5010563;28;20104;-46
2023/07/24 00:17:18;;;;;;;4.15;2.70;;;;;;;22.33;66.38;100473.69;5011100;28;20034;-47
2023/07/24 00:19:43;;;;;;;5.05;3.00;;;;;;;22.55;65.42;100466.56;5010317;28;20125;-43
2023/07/24 00:22:08;;;;;;;5.80;2.78;;;;;;;22.67;64.43;100461.59;5010050;28;20030;-45
2023/07/24 00:24:34;;;;;;;4.25;3.00;;;;;;;22.46;65.42;100470.47;5009113;28;20053;-45
2023/07/24 00:26:59;;;;;;;4.50;3.00;;;;;;;22.65;65.17;100466.09;5010499;28;20037;-47
2023/07/24 00:29:24;;;;;;;3.55;2.83;;;;;;;22.81;64.65;100454.88;5010466;28;20042;-43
2023/07/24 00:31:50;;;;;;;4.95;3.30;;;;;;;22.58;64.94;100445.19;5009257;28;20468;-43
2023/07/24 00:34:16;;;;;;;5.63;3.25;;;;;;;22.55;64.74;100446.19;5010301;28;20580;-46
2023/07/24 00:36:41;;;;;;;4.50;3.00;;;;;;;22.65;64.60;100452.81;5010234;28;20120;-43
2023/07/24 00:39:07;;;;;;;5.38;3.10;;;;;;;22.47;65.40;100445.63;5010362;28;20523;-43
2023/07/24 00:41:32;;;;;;;5.15;3.40;;;;;;;22.47;65.41;100439.47;5010176;28;20131;-42
2023/07/24 00:43:58;;;;;;;5.68;3.15;;;;;;;22.55;65.17;100440.88;5010864;28;20030;-45
2023/07/24 00:46:24;;;;;;;5.40;2.88;;;;;;;22.58;65.04;100442.53;5011292;28;20041;-45
2023/07/24 00:48:50;;;;;;;4.70;3.00;;;;;;;22.54;65.03;100438.28;5010522;28;20025;-45
2023/07/24 00:51:16;;;;;;;3.88;3.00;;;;;;;22.50;64.91;100428.72;5010151;28;20107;-46
2023/07/24 00:53:41;;;;;;;4.53;3.15;;;;;;;22.44;65.27;100436.94;5008796;28;20501;-45
2023/07/24 00:56:07;;;;;;;5.47;3.40;;;;;;;22.10;66.51;100432.16;5010489;28;20484;-42
2023/07/24 00:58:35;;;;;;;5.45;3.40;;;;;;;22.10;66.17;100432.16;5010156;28;20408;-42
2023/07/24 01:01:00;;;;;;;5.30;3.47;;;;;;;22.08;66.09;100431.38;5010229;28;20037;-45
2023/07/24 01:03:32;;;;;;;5.35;3.70;;;;;;;22.15;66.01;100427.53;5009774;28;20045;-49
2023/07/24 01:05:57;;;;;;;5.40;3.65;;;;;;;22.25;65.48;100428.88;5010176;28;20030;-43
2023/07/24 01:08:23;;;;;;;5.13;3.72;;;;;;;22.09;65.91;100433.09;5010172;28;20038;-42
2023/07/24 01:10:49;;;;;;;7.00;3.70;;;;;;;22.28;65.19;100436.72;5009110;28;20113;-43
2023/07/24 01:13:14;;;;;;;5.10;3.55;;;;;;;22.35;64.62;100430.22;5010075;28;20030;-44
2023/07/24 01:15:48;;;;;;;6.38;3.88;;;;;;;22.28;64.97;100434.06;5009403;28;20045;-43
2023/07/24 01:18:17;;;;;;;7.53;4.03;;;;;;;22.21;64.94;100429.91;5010164;28;20091;-42
2023/07/24 01:20:55;;;;;;;8.80;4.80;;;;;;;22.10;65.22;100429.50;5007718;28;20035;-42
2023/07/24 01:23:58;;;;;;;7.70;4.20;;;;;;;22.15;64.51;100425.72;5010230;28;20045;-45
2023/07/24 01:26:23;;;;;;;6.70;4.00;;;;;;;22.25;64.25;100423.56;5009686;28;20500;-44
2023/07/24 01:28:49;;;;;;;7.60;3.90;;;;;;;22.30;63.71;100416.28;5009610;28;20036;-44
2023/07/24 01:31:16;;;;;;;6.72;4.15;;;;;;;22.36;63.64;100408.03;5009331;28;20042;-44
2023/07/24 01:33:42;;;;;;;7.90;4.35;;;;;;;22.17;63.70;100415.06;5009309;28;20045;-46
2023/07/24 01:36:07;;;;;;;8.05;4.20;;;;;;;22.34;63.37;100412.56;5009759;28;20038;-44
2023/07/24 01:38:34;;;;;;;7.72;4.32;;;;;;;21.93;64.55;100414.25;5009329;28;20568;-45
2023/07/24 01:41:00;;;;;;;6.75;4.20;;;;;;;22.05;64.07;100412.91;5008916;28;20088;-46
2023/07/24 01:43:27;;;;;;;7.55;4.60;;;;;;;22.07;63.69;100413.72;5009636;28;20034;-43
2023/07/24 01:45:52;;;;;;;8.05;3.97;;;;;;;22.04;64.11;100406.72;5009934;28;20107;-47
2023/07/24 01:48:18;;;;;;;7.72;4.15;;;;;;;22.09;63.67;100411.84;5012434;28;20385;-46
2023/07/24 01:50:43;;;;;;;7.18;4.30;;;;;;;22.14;63.33;100402.75;5010743;28;20496;-44
2023/07/24 01:53:09;;;;;;;8.80;4.45;;;;;;;22.17;63.25;100407.97;5009613;28;20072;-47
2023/07/24 01:55:34;;;;;;;10.45;4.32;;;;;;;22.07;63.32;100405.75;5007755;28;20065;-46
2023/07/24 01:58:00;;;;;;;5.40;3.65;;;;;;;22.02;63.16;100400.59;5008199;28;20029;-44
2023/07/24 02:00:25;;;;;;;8.68;4.40;;;;;;;21.83;64.13;100404.94;5008644;28;20033;-46
2023/07/24 02:02:50;;;;;;;8.23;4.15;;;;;;;21.82;64.50;100400.53;5009099;28;20076;-44
2023/07/24 02:05:16;;;;;;;9.50;4.18;;;;;;;21.67;64.98;100403.78;5009346;28;20034;-46
2023/07/24 02:07:41;;;;;;;8.50;4.20;;;;;;;22.01;63.60;100400.69;5009073;28;20504;-47
2023/07/24 02:10:09;;;;;;;8.52;4.38;;;;;;;22.04;63.43;100377.53;5008882;28;20030;-44
2023/07/24 02:12:35;;;;;;;8.20;4.10;;;;;;;22.06;63.34;100373.03;5008399;28;20038;-43
2023/07/24 02:15:00;;;;;;;7.28;3.70;;;;;;;22.15;63.22;100379.72;5009189;28;20308;-43
2023/07/24 02:17:25;;;;;;;8.63;3.85;;;;;;;22.09;63.08;100380.84;5010348;28;20432;-45
2023/07/24 02:19:51;;;;;;;9.15;4.10;;;;;;;22.11;63.38;100371.03;5010979;28;20061;-42
2023/07/24 02:22:16;;;;;;;6.95;4.00;;;;;;;22.06;62.99;100378.34;5011555;28;20141;-43
2023/07/24 02:24:42;;;;;;;8.05;3.95;;;;;;;21.99;63.42;100384.81;5010765;28;20030;-43
2023/07/24 02:27:07;;;;;;;6.88;3.65;;;;;;;22.03;63.44;100374.94;5013186;28;20049;-43
2023/07/24 02:29:33;;;;;;;10.02;3.88;;;;;;;21.84;63.31;100380.09;5012573;28;20034;-44
2023/07/24 02:31:59;;;;;;;7.28;3.90;;;;;;;22.13;63.08;100377.16;5010696;28;20117;-46
2023/07/24 02:34:26;;;;;;;9.23;3.97;;;;;;;22.16;62.47;100368.19;5012192;28;20042;-44
2023/07/24 02:36:55;;;;;;;7.75;3.70;;;;;;;22.09;63.04;100364.91;5011944;28;20064;-43
2023/07/24 02:39:21;;;;;;;9.52;4.10;;;;;;;22.12;62.74;100364.81;5013494;28;20092;-43
2023/07/24 02:41:49;;;;;;;9.82;4.07;;;;;;;22.06;62.60;100364.19;5012112;28;20042;-44
2023/07/24 02:44:14;;;;;;;7.03;3.90;;;;;;;22.09;62.46;100359.63;5012318;28;20083;-44
2023/07/24 02:46:39;;;;;;;8.68;4.22;;;;;;;21.89;63.50;100350.75;5012745;28;20125;-43
2023/07/24 02:49:05;;;;;;;6.80;3.67;;;;;;;22.15;62.65;100346.06;5013578;28;20033;-43
2023/07/24 02:51:30;;;;;;;6.72;3.60;;;;;;;22.16;62.45;100350.47;5012935;28;20038;-42
2023/07/24 02:53:56;;;;;;;9.93;3.97;;;;;;;22.12;62.67;100345.34;5015615;28;20030;-48
2023/07/24 02:56:21;;;;;;;10.68;4.32;;;;;;;21.91;63.72;100356.81;5012992;28;20062;-42
2023/07/24 02:58:47;;;;;;;9.27;3.85;;;;;;;21.94;63.18;100338.13;5012106;28;20269;-43
2023/07/24 03:01:14;;;;;;;9.30;4.05;;;;;;;22.10;62.99;100334.78;5011630;28;20033;-44
2023/07/24 03:03:40;;;;;;;8.75;4.07;;;;;;;22.19;62.50;100341.53;5011886;28;20058;-43
2023/07/24 03:06:05;;;;;;;8.70;3.95;;;;;;;22.03;63.19;100356.34;5012269;28;20029;-42
2023/07/24 03:08:30;;;;;;;10.63;3.95;;;;;;;22.04;63.25;100360.72;5011463;28;20034;-44
2023/07/24 03:10:56;;;;;;;10.82;4.10;;;;;;;22.13;62.62;100350.59;5011487;28;20041;-45
2023/07/24 03:13:21;;;;;;;10.02;3.75;;;;;;;22.06;62.72;100342.97;5012121;28;20137;-46
2023/07/24 03:15:53;;;;;;;9.50;4.20;;;;;;;21.93;62.78;100370.91;5011615;28;20114;-47
2023/07/24 03:18:19;;;;;;;10.48;4.00;;;;;;;22.14;62.54;100365.59;5012050;28;20467;-45
2023/07/24 03:20:44;;;;;;;8.23;3.67;;;;;;;22.25;61.93;100355.41;5010855;28;20054;-42
2023/07/24 03:23:09;;;;;;;8.48;3.85;;;;;;;22.30;61.62;100349.03;5012129;28;20043;-44
2023/07/24 03:25:35;;;;;;;10.10;4.10;;;;;;;22.29;61.92;100356.13;5011206;28;20496;-43
2023/07/24 03:28:01;;;;;;;11.52;4.00;;;;;;;22.32;61.83;100357.78;5011733;28;20393;-44
2023/07/24 03:30:26;;;;;;;11.70;4.35;;;;;;;22.19;61.84;100350.34;5010619;28;20061;-48
2023/07/24 03:32:51;;;;;;;7.72;3.80;;;;;;;22.28;62.02;100351.72;5011782;28;20030;-46
2023/07/24 03:35:17;;;;;;;12.05;4.22;;;;;;;22.18;62.22;100345.97;5011532;28;20068;-43
2023/07/24 03:37:42;;;;;;;10.13;4.30;;;;;;;22.02;62.88;100350.16;5010834;28;20121;-45
2023/07/24 03:40:08;;;;;;;9.40;4.25;;;;;;;22.05;62.92;100343.88;5010622;28;20037;-47
2023/07/24 03:42:33;;;;;;;8.90;3.90;;;;;;;22.15;62.88;100347.88;5010900;28;20057;-44
2023/07/24 03:44:59;;;;;;;11.00;4.03;;;;;;;21.99;63.15;100350.31;5011523;28;20057;-46
2023/07/24 03:47:24;;;;;;;11.60;4.07;;;;;;;22.18;62.56;100348.63;5011539;28;20029;-45
2023/07/24 03:49:50;;;;;;;12.15;4.20;;;;;;;21.93;63.39;100341.72;5010801;28;20116;-44
2023/07/24 03:52:16;;;;;;;10.02;4.10;;;;;;;21.80;64.06;100344.00;5010819;28;20026;-43
2023/07/24 03:54:41;;;;;;;13.98;4.30;;;;;;;21.99;63.33;100338.84;5010500;28;20042;-43
2023/07/24 03:57:07;;;;;;;9.52;4.55;;;;;;;22.09;63.24;100346.34;5011136;28;20033;-46
2023/07/24 03:59:32;;;;;;;8.68;4.10;;;;;;;22.02;63.04;100350.16;5010504;28;20044;-42
2023/07/24 04:01:58;;;;;;;10.93;4.22;;;;;;;22.17;62.94;100340.72;5010446;28;20026;-41
2023/07/24 04:04:23;;;;;;;8.38;3.88;;;;;;;22.17;62.92;100349.53;5011048;28;20029;-45
2023/07/24 04:06:48;;;;;;;10.30;4.35;;;;;;;22.04;63.90;100353.63;5010628;28;20496;-43
2023/07/24 04:09:14;;;;;;;7.90;4.13;;;;;;;22.08;63.36;100355.22;5010656;28;20034;-42
2023/07/24 04:11:43;;;;;;;8.18;3.92;;;;;;;22.17;63.13;100346.03;5009718;28;20128;-48
2023/07/24 04:14:09;;;;;;;10.43;4.38;;;;;;;22.27;63.20;100350.88;5010717;28;20459;-44
2023/07/24 04:16:34;;;;;;;8.07;3.78;;;;;;;22.39;62.78;100344.16;5010648;28;20026;-49
2023/07/24 04:18:59;;;;;;;9.00;4.03;;;;;;;22.25;63.21;100339.47;5010747;28;20030;-49
2023/07/24 04:21:25;;;;;;;6.90;3.90;;;;;;;22.32;62.70;100334.75;5010535;28;20528;-45
2023/07/24 04:23:50;;;;;;;11.32;3.97;;;;;;;22.37;62.60;100347.81;5010198;28;20037;-42
2023/07/24 04:26:16;;;;;;;9.93;3.97;;;;;;;22.27;62.71;100342.91;5011033;28;20038;-45
2023/07/24 04:28:41;;;;;;;10.00;4.38;;;;;;;22.19;63.19;100339.72;5010609;28;20048;-47
2023/07/24 04:31:06;;;;;;;9.23;4.00;;;;;;;22.22;63.18;100339.59;5009937;28;20030;-46
2023/07/24 04:33:32;;;;;;;8.75;4.10;;;;;;;22.14;63.47;100338.19;5010073;28;20042;-43
2023/07/24 04:35:57;;;;;;;13.20;4.43;;;;;;;22.05;63.44;100347.41;5010526;28;20499;-46
2023/07/24 04:38:23;;;;;;;9.63;4.30;;;;;;;21.86;64.02;100346.41;5010123;28;20197;-49
2023/07/24 04:40:48;;;;;;;8.63;4.03;;;;;;;22.02;63.55;100344.00;5009374;28;20511;-43
2023/07/24 04:43:13;;;;;;;9.57;4.20;;;;;;;21.96;63.72;100349.56;5010357;28;20117;-46
2023/07/24 04:45:39;;;;;;;10.68;4.30;;;;;;;21.92;63.77;100345.28;5009844;28;20566;-46
2023/07/24 04:48:04;;;;;;;9.40;4.25;;;;;;;21.98;64.09;100343.28;5010629;28;20037;-45
2023/07/24 04:50:30;;;;;;;8.65;3.95;;;;;;;21.96;64.13;100358.38;5009646;28;20100;-44
2023/07/24 04:52:56;;;;;;;10.60;4.28;;;;;;;22.13;63.73;100349.75;5010526;28;20030;-47
2023/07/24 04:55:22;;;;;;;6.95;3.63;;;;;;;22.26;63.94;100343.81;5009884;28;20049;-42
2023/07/24 04:57:47;;;;;;;9.10;4.10;;;;;;;22.25;63.38;100349.22;5009383;28;20504;-46
2023/07/24 05:00:13;;;;;;;8.73;3.70;;;;;;;22.38;63.05;100342.47;5009371;28;20038;-45
2023/07/24 05:02:39;;;;;;;11.00;4.25;;;;;;;22.30;63.22;100347.22;5010003;28;20457;-45
2023/07/24 05:05:05;;;;;;;8.45;3.90;;;;;;;22.53;62.30;100344.44;5009882;28;20064;-45
2023/07/24 05:07:30;;;;;;;11.15;4.25;;;;;;;22.55;62.01;100342.56;5009472;28;20488;-46
2023/07/24 05:09:55;;;;;;;11.10;4.20;;;;;;;22.56;62.12;100338.13;5010066;28;20121;-44
2023/07/24 05:12:21;;;;;;;13.38;4.28;;;;;;;22.62;61.88;100348.47;5009664;28;20061;-43
2023/07/24 05:14:46;;;;;;;10.57;4.05;;;;;;;22.43;62.00;100340.47;5009623;28;20038;-45
2023/07/24 05:17:11;;;;;;;11.73;4.07;;;;;;;22.52;62.43;100339.16;5010184;28;20061;-42
2023/07/24 05:19:37;;;;;;;11.75;4.50;;;;;;;22.15;63.36;100339.91;5009384;28;20108;-45
2023/07/24 05:22:02;;;;;;;12.45;4.38;;;;;;;22.51;62.82;100346.28;5009211;28;20121;-44
2023/07/24 05:24:27;;;;;;;9.18;3.80;;;;;;;22.71;62.15;100344.53;5009360;28;20183;-45
2023/07/24 05:26:53;;;;;;;9.52;4.20;;;;;;;22.76;62.09;100347.88;5010038;28;20030;-46
2023/07/24 05:29:18;;;;;;;11.15;4.43;;;;;;;22.78;61.83;100341.56;5009671;28;20074;-42
2023/07/24 05:31:44;;;;;;;11.90;4.00;;;;;;;22.83;61.37;100346.66;5008673;28;20034;-46
2023/07/24 05:34:09;;;;;;;9.20;4.10;;;;;;;22.91;61.09;100344.53;5010143;28;20125;-48
2023/07/24 05:36:35;;;;;;;9.80;4.15;;;;;;;22.92;61.13;100339.16;5009415;28;20038;-42
2023/07/24 05:39:00;;;;;;;10.60;4.55;;;;;;;22.74;61.42;100339.13;5009696;28;20053;-47
2023/07/24 05:41:25;;;;;;;13.20;4.15;;;;;;;22.66;61.54;100347.41;5009185;28;20472;-45
2023/07/24 05:43:51;;;;;;;11.15;4.13;;;;;;;22.67;61.50;100344.69;5009099;28;20400;-46
2023/07/24 05:46:16;;;;;;;10.52;4.10;;;;;;;22.79;61.39;100339.78;5009814;28;20041;-48
2023/07/24 05:48:41;;;;;;;8.98;3.78;;;;;;;22.85;61.01;100345.69;5009233;28;20041;-45
2023/07/24 05:51:06;;;;;;;12.00;4.38;;;;;;;22.78;61.41;100346.03;5009156;28;20034;-46
2023/07/24 05:53:32;;;;;;;10.05;4.00;;;;;;;22.95;60.77;100354.09;5008851;28;20440;-45
2023/07/24 05:55:59;;;;;;;9.93;4.05;;;;;;;23.21;60.11;100353.75;5009451;28;20042;-44
2023/07/24 05:58:25;;;;;;;9.48;3.80;;;;;;;23.14;60.09;100352.31;5009610;28;20432;-47
2023/07/24 06:00:50;;;;;;;11.40;3.85;;;;;;;23.04;60.10;100349.22;5008317;28;20030;-44
2023/07/24 06:03:15;;;;;;;11.65;4.22;;;;;;;23.05;60.09;100345.59;5009368;28;20435;-44
2023/07/24 06:05:41;;;;;;;10.57;3.83;;;;;;;22.77;61.28;100349.59;5009101;28;20408;-46
2023/07/24 06:08:08;;;;;;;13.50;4.00;;;;;;;23.30;59.82;100355.09;5009921;28;20510;-45
2023/07/24 06:10:33;;;;;;;10.70;4.13;;;;;;;23.24;59.31;100356.25;5011928;28;20042;-47
2023/07/24 06:12:59;;;;;;;8.75;3.78;;;;;;;23.51;58.75;100358.59;5013175;28;20037;-48
2023/07/24 06:15:24;;;;;;;10.18;3.50;;;;;;;23.62;57.14;100359.78;5013078;28;20046;-43
2023/07/24 06:17:50;;;;;;;8.48;3.47;;;;;;;23.59;56.84;100356.44;5012802;28;20037;-42
2023/07/24 06:20:15;;;;;;;11.63;4.18;;;;;;;23.71;56.59;100366.47;5013960;28;20034;-49
2023/07/24 06:22:41;;;;;;;9.63;3.72;;;;;;;23.20;58.13;100367.13;5013951;28;20574;-45
2023/07/24 06:25:06;;;;;;;11.18;3.80;;;;;;;23.11;59.18;100365.75;5013887;28;20040;-47
2023/07/24 06:27:32;;;;;;;11.98;3.97;;;;;;;23.11;59.53;100370.22;5012736;28;20061;-49
2023/07/24 06:29:57;;;;;;;7.72;3.40;;;;;;;23.61;57.86;100368.69;5014221;28;20061;-43
2023/07/24 06:32:22;;;;;;;10.10;3.53;;;;;;;23.57;57.99;100374.25;5013144;28;20033;-43
2023/07/24 06:34:48;;;;;;;10.20;3.45;;;;;;;23.62;56.84;100373.09;5012815;28;20061;-43
2023/07/24 06:37:13;;;;;;;8.93;3.58;;;;;;;23.73;56.94;100373.44;5013714;28;20061;-44
2023/07/24 06:39:38;;;;;;;7.75;3.55;;;;;;;23.74;56.94;100375.16;5013447;28;20034;-43
2023/07/24 06:42:04;;;;;;;11.30;4.13;;;;;;;23.43;57.57;100372.22;5013707;28;20149;-45
2023/07/24 06:44:29;;;;;;;9.73;4.10;;;;;;;23.42;58.00;100373.19;5013093;28;20512;-44
2023/07/24 06:46:55;;;;;;;13.90;3.72;;;;;;;23.37;57.69;100381.34;5013649;28;20514;-46
2023/07/24 06:49:20;;;;;;;9.15;4.20;;;;;;;23.33;59.06;100379.78;5013241;28;20228;-43
2023/07/24 06:51:45;;;;;;;9.18;3.78;;;;;;;23.62;58.11;100378.41;5012582;28;20049;-46
2023/07/24 06:54:11;;;;;;;10.20;4.03;;;;;;;23.42;58.30;100386.47;5025856;28;20102;-44
2023/07/24 06:56:36;;;;;;;9.07;3.72;;;;;;;23.80;57.35;100379.31;5022048;28;20060;-47
2023/07/24 06:59:01;;;;;;;10.10;3.97;;;;;;;23.88;57.42;100371.84;5033340;28;20499;-46
2023/07/24 07:01:27;;;;;;;11.18;3.55;;;;;;;23.80;57.18;100384.66;5031934;28;20037;-47
2023/07/24 07:03:52;;;;;;;10.13;3.60;;;;;;;24.75;54.84;100368.25;5031807;28;20045;-46
2023/07/24 07:06:17;;;;;;;10.15;3.53;;;;;;;25.93;51.73;100366.16;5031687;28;20538;-44
2023/07/24 07:08:43;;;;;;;10.43;3.42;;;;;;;26.37;49.28;100360.03;5030889;28;20034;-48
2023/07/24 07:11:08;;;;;;;9.95;3.40;;;;;;;26.61;48.26;100358.53;5030746;28;20198;-44
2023/07/24 07:13:33;;;;;;;11.70;3.35;;;;;;;26.96;46.91;100367.94;5022018;28;20041;-44
2023/07/24 07:15:59;;;;;;;9.05;3.60;;;;;;;25.53;51.01;100359.53;5032056;28;20136;-44
2023/07/24 07:18:24;;;;;;;8.73;3.40;;;;;;;25.52;50.84;100363.16;5031139;28;20061;-44
2023/07/24 07:20:51;;;;;;;9.52;3.88;;;;;;;24.85;51.93;100366.81;5029696;28;20037;-43
2023/07/24 07:23:17;;;;;;;8.85;3.88;;;;;;;24.64;52.56;100362.66;5030955;28;20037;-45
2023/07/24 07:25:45;;;;;;;9.38;3.75;;;;;;;24.79;52.86;100368.94;5030769;28;20033;-44
2023/07/24 07:28:11;;;;;;;8.70;4.00;;;;;;;24.15;54.47;100365.13;5031479;28;20029;-46
2023/07/24 07:30:36;;;;;;;9.25;3.80;;;;;;;24.88;53.26;100364.00;5030459;28;20180;-44
2023/07/24 07:33:01;;;;;;;7.53;3.65;;;;;;;25.45;51.64;100359.09;5031938;28;20038;-44
2023/07/24 07:35:27;;;;;;;9.27;3.58;;;;;;;26.96;46.63;100345.69;5031055;28;20040;-46
2023/07/24 07:37:52;;;;;;;7.95;3.45;;;;;;;27.94;44.67;100346.44;5031548;28;20029;-46
2023/07/24 07:40:17;;;;;;;8.80;3.38;;;;;;;28.56;43.46;100341.34;5030945;28;20052;-45
2023/07/24 07:42:44;;;;;;;8.35;3.30;;;;;;;29.04;42.61;100339.72;5030547;28;20038;-44
2023/07/24 07:45:10;;;;;;;7.05;3.08;;;;;;;28.90;41.29;100345.25;5031047;28;20079;-45
2023/07/24 07:47:35;;;;;;;6.55;2.92;;;;;;;28.82;41.18;100331.50;5030553;28;20037;-49
2023/07/24 07:50:01;;;;;;;6.65;2.90;;;;;;;29.27;40.10;100328.22;5030841;28;20037;-49
2023/07/24 07:52:26;;;;;;;7.43;3.10;;;;;;;28.55;41.36;100339.63;5028456;28;20030;-46
2023/07/24 07:54:51;;;;;;;8.90;3.20;;;;;;;28.33;41.35;100334.03;5011317;28;20061;-44
2023/07/24 07:57:17;;;;;;;9.02;3.33;;;;;;;26.47;47.03;100343.34;5027480;28;20096;-45
2023/07/24 07:59:42;;;;;;;7.63;3.40;;;;;;;25.96;47.65;100349.09;5030386;28;20034;-49
2023/07/24 08:02:08;;;;;;;7.85;3.50;;;;;;;25.78;47.78;100348.34;5029380;28;20175;-49
2023/07/24 08:04:33;;;;;;;6.88;3.50;;;;;;;25.24;49.56;100357.63;5030181;28;20036;-43
2023/07/24 08:06:59;;;;;;;9.85;3.63;;;;;;;25.24;50.29;100354.97;5030633;28;20030;-47
2023/07/24 08:09:24;;;;;;;9.73;3.83;;;;;;;25.22;49.96;100348.84;5030106;28;20116;-44
2023/07/24 08:11:51;;;;;;;10.75;3.65;;;;;;;25.26;50.35;100355.72;5029620;28;20030;-43
2023/07/24 08:14:17;;;;;;;8.55;4.00;;;;;;;25.53;50.66;100343.53;5030361;28;20073;-49
2023/07/24 08:16:42;;;;;;;8.90;3.50;;;;;;;25.13;50.67;100346.72;5029816;28;20128;-46
2023/07/24 08:19:07;;;;;;;8.30;3.90;;;;;;;25.34;50.20;100342.84;5030376;28;20029;-49
2023/07/24 08:21:33;;;;;;;9.02;4.20;;;;;;;25.23;50.13;100343.44;5029209;28;20033;-49
2023/07/24 08:23:59;;;;;;;10.13;3.80;;;;;;;25.73;48.61;100348.63;5030193;28;20030;-44
2023/07/24 08:26:26;;;;;;;8.75;3.67;;;;;;;26.36;47.79;100337.78;5030566;28;20033;-44
2023/07/24 08:28:51;;;;;;;7.50;3.55;;;;;;;26.52;46.18;100338.59;5029636;28;20979;-44
2023/07/24 08:31:17;;;;;;;8.45;3.40;;;;;;;26.92;45.73;100350.38;5028845;28;20037;-45
2023/07/24 08:33:42;;;;;;;7.88;3.50;;;;;;;27.51;44.02;100356.44;5029890;28;20403;-47
2023/07/24 08:36:08;;;;;;;8.75;3.30;;;;;;;27.40;45.03;100348.22;5030292;28;20025;-46
2023/07/24 08:38:34;;;;;;;8.02;3.47;;;;;;;26.97;46.13;100342.94;5029446;28;20037;-45
2023/07/24 08:41:11;;;;;;;9.20;3.45;;;;;;;27.14;45.61;100344.53;5029302;28;20072;-47
2023/07/24 08:43:39;;;;;;;9.85;3.58;;;;;;;26.02;48.63;100344.25;5028389;28;20033;-46
2023/07/24 08:46:05;;;;;;;8.50;3.83;;;;;;;25.78;49.43;100348.34;5029872;28;20520;-49
2023/07/24 08:48:35;;;;;;;8.05;3.50;;;;;;;25.56;48.97;100354.00;5029384;28;20038;-45
2023/07/24 08:51:02;;;;;;;8.57;3.58;;;;;;;25.39;49.88;100346.97;5029515;28;20033;-46
2023/07/24 08:53:32;;;;;;;6.28;3.47;;;;;;;25.82;48.95;100353.44;5029346;28;20041;-45
2023/07/24 08:55:59;;;;;;;7.65;3.80;;;;;;;25.40;49.55;100353.16;5029658;28;20491;-43
2023/07/24 08:58:24;;;;;;;7.45;3.58;;;;;;;25.62;49.80;100350.16;5029869;28;20068;-44
2023/07/24 09:00:51;;;;;;;6.80;3.50;;;;;;;25.30;50.05;100341.28;5028871;28;20484;-45
2023/07/24 09:03:18;;;;;;;6.80;3.42;;;;;;;26.26;47.73;100344.66;5030647;28;20037;-47
2023/07/24 09:05:44;;;;;;;9.18;3.30;;;;;;;26.56;46.50;100339.25;5029930;28;20037;-49
2023/07/24 09:08:09;;;;;;;9.52;3.60;;;;;;;26.17;48.39;100342.47;5030113;28;20564;-48
2023/07/24 09:10:34;;;;;;;11.38;3.97;;;;;;;25.18;51.28;100329.50;5028346;28;20037;-45
2023/07/24 09:13:00;;;;;;;7.70;3.70;;;;;;;25.31;51.48;100329.69;5029748;28;20029;-49
2023/07/24 09:15:25;;;;;;;7.90;3.40;;;;;;;25.59;48.82;100331.66;5029928;28;20046;-45
2023/07/24 09:17:52;;;;;;;7.30;3.35;;;;;;;26.43;47.22;100320.44;5029039;28;20042;-45
2023/07/24 09:20:19;;;;;;;7.07;3.50;;;;;;;26.51;47.02;100320.84;5028660;28;20037;-45
2023/07/24 09:22:49;;;;;;;8.48;3.03;;;;;;;27.20;45.62;100314.69;5029061;28;20068;-47
2023/07/24 09:25:15;;;;;;;5.60;3.03;;;;;;;26.76;46.17;100311.28;4990155;28;20037;-47
2023/07/24 09:27:40;;;;;;;7.65;3.38;;;;;;;26.65;46.42;100312.81;5012027;28;20038;-48
2023/07/24 09:30:15;;;;;;;7.55;3.35;;;;;;;26.94;45.03;100310.19;5028928;28;20573;-41
2023/07/24 09:32:40;;;;;;;7.53;3.60;;;;;;;27.54;43.81;100312.56;5029190;28;20068;-48
2023/07/24 09:35:28;;;;;;;5.25;3.15;;;;;;;27.73;44.19;100307.72;5029316;28;20079;-45
2023/07/24 09:38:11;;;;;;;8.57;3.50;;;;;;;27.01;45.17;100307.03;5028988;28;20120;-47
2023/07/24 09:40:46;;;;;;;8.65;3.53;;;;;;;27.03;45.99;100314.94;5028252;28;20559;-44
2023/07/24 09:43:18;;;;;;;8.15;3.60;;;;;;;26.70;45.14;100323.25;5031560;28;20048;-43
2023/07/24 09:45:45;;;;;;;8.80;3.90;;;;;;;26.44;47.00;100319.47;5033108;28;20030;-48
2023/07/24 09:48:14;;;;;;;8.52;3.60;;;;;;;25.24;49.75;100325.63;5033351;28;20052;-46
2023/07/24 09:50:40;;;;;;;7.40;3.40;;;;;;;24.79;49.86;100334.28;5032603;28;20033;-49
2023/07/24 09:53:06;;;;;;;6.80;3.75;;;;;;;24.55;51.55;100334.66;5033111;28;20064;-47
2023/07/24 09:55:37;;;;;;;9.60;3.90;;;;;;;24.40;51.95;100335.44;5032672;28;20492;-47
2023/07/24 09:58:04;;;;;;;7.25;3.45;;;;;;;24.85;50.78;100334.81;5033308;28;20035;-45
2023/07/24 10:00:31;;;;;;;7.50;3.83;;;;;;;24.44;52.23;100329.03;5032114;28;20535;-49
2023/07/24 10:02:57;;;;;;;9.93;4.00;;;;;;;25.00;50.22;100330.50;5033117;28;20037;-45
2023/07/24 10:05:23;;;;;;;9.80;4.03;;;;;;;24.91;51.25;100331.00;5032893;28;20091;-45
2023/07/24 10:07:49;;;;;;;7.80;3.60;;;;;;;25.41;50.24;100325.53;5032712;28;20029;-47
2023/07/24 10:10:15;;;;;;;9.60;4.20;;;;;;;24.94;52.04;100325.50;5032216;28;20033;-45
2023/07/24 10:12:40;;;;;;;8.00;4.07;;;;;;;24.58;52.45;100323.81;5032042;28;20087;-47
2023/07/24 10:15:06;;;;;;;8.65;3.88;;;;;;;24.90;51.81;100326.59;5033095;28;20029;-47
2023/07/24 10:17:39;;;;;;;8.35;4.10;;;;;;;24.65;51.59;100329.69;5032595;28;20050;-45
2023/07/24 10:20:07;;;;;;;9.40;4.40;;;;;;;25.08;51.38;100319.41;5032863;28;20029;-48
2023/07/24 10:22:32;;;;;;;7.13;4.35;;;;;;;25.26;50.61;100311.22;5033408;28;20033;-43
2023/07/24 10:24:58;;;;;;;9.13;4.00;;;;;;;25.70;50.51;100315.88;5032761;28;20120;-44
2023/07/24 10:27:24;;;;;;;8.00;3.78;;;;;;;26.41;46.98;100319.66;5032957;28;20121;-44
2023/07/24 10:30:04;;;;;;;12.02;3.90;;;;;;;26.37;47.77;100306.56;5032944;28;20061;-42
2023/07/24 10:32:30;;;;;;;7.25;3.90;;;;;;;25.87;48.50;100313.09;5032780;28;20055;-43
2023/07/24 10:35:06;;;;;;;7.95;4.05;;;;;;;25.48;50.09;100316.25;5033386;28;20045;-46
2023/07/24 10:37:34;;;;;;;7.72;3.72;;;;;;;26.13;47.48;100308.88;5033022;28;20464;-43
2023/07/24 10:39:59;;;;;;;8.15;3.83;;;;;;;26.91;46.32;100307.69;5033735;28;20094;-46
2023/07/24 10:42:25;;;;;;;7.93;4.20;;;;;;;26.14;47.93;100311.47;5032820;28;20493;-45
2023/07/24 10:45:02;;;;;;;8.90;3.97;;;;;;;27.16;46.25;100305.16;5033064;28;20034;-46
2023/07/24 10:47:27;;;;;;;15.30;3.85;;;;;;;27.40;44.97;100318.78;5033649;28;20464;-45
2023/07/24 10:49:52;;;;;;;6.78;3.80;;;;;;;27.04;45.36;100308.63;5034294;28;20029;-44
2023/07/24 10:52:18;;;;;;;7.47;3.53;;;;;;;26.50;46.69;100329.81;5033592;28;20496;-48
2023/07/24 10:54:44;;;;;;;6.30;3.63;;;;;;;26.94;44.66;100313.72;5031593;28;20101;-44
2023/07/24 10:57:10;;;;;;;6.57;3.70;;;;;;;26.94;46.54;100323.53;5034183;28;20116;-44
2023/07/24 10:59:37;;;;;;;7.28;3.55;;;;;;;26.87;46.19;100314.16;5032697;28;20038;-45
2023/07/24 11:02:04;;;;;;;6.85;3.72;;;;;;;26.00;47.57;100321.25;5032335;28;20534;-44
2023/07/24 11:04:30;;;;;;;8.75;4.18;;;;;;;25.93;48.78;100323.41;5033539;28;20160;-48
2023/07/24 11:06:57;;;;;;;6.47;3.97;;;;;;;25.43;49.10;100334.31;5033322;28;20060;-47
2023/07/24 11:09:23;;;;;;;11.48;4.53;;;;;;;24.61;52.22;100344.13;5030828;28;20034;-46
2023/07/24 11:11:51;;;;;;;8.27;4.47;;;;;;;24.88;52.27;100334.69;5030386;28;20060;-48
2023/07/24 11:14:16;;;;;;;8.30;4.40;;;;;;;24.93;51.95;100332.66;5031951;28;20120;-46
2023/07/24 11:16:49;;;;;;;7.28;4.00;;;;;;;25.82;49.86;100334.72;5031406;28;20128;-49
2023/07/24 11:19:23;;;;;;;5.20;3.50;;;;;;;26.34;49.02;100333.50;5032301;28;20034;-46